sensor_id;sensor_type;location;lat;lon;timestamp;temperature;humidity
43995;DHT22;51687;52.160;5.298;2022-10-28T00:01:27;19.30;71.20
43995;DHT22;51687;52.160;5.298;2022-10-28T00:03:57;19.30;71.30
43995;DHT22;51687;52.160;5.298;2022-10-28T00:06:29;19.30;71.20
43995;DHT22;51687;52.160;5.298;2022-10-28T00:08:57;19.30;71.10
43995;DHT22;51687;52.160;5.298;2022-10-28T00:11:30;19.30;71.10
43995;DHT22;51687;52.160;5.298;2022-10-28T00:13:59;19.30;71.10
43995;DHT22;51687;52.160;5.298;2022-10-28T00:16:28;19.30;71.00
43995;DHT22;51687;52.160;5.298;2022-10-28T00:18:57;19.20;71.00
43995;DHT22;51687;52.160;5.298;2022-10-28T00:21:27;19.30;71.00
43995;DHT22;51687;52.160;5.298;2022-10-28T00:23:54;19.20;71.00
43995;DHT22;51687;52.160;5.298;2022-10-28T00:26:24;19.20;70.90
43995;DHT22;51687;52.160;5.298;2022-10-28T00:28:53;19.20;71.50
43995;DHT22;51687;52.160;5.298;2022-10-28T00:31:22;19.20;71.50
43995;DHT22;51687;52.160;5.298;2022-10-28T00:33:49;19.20;71.40
43995;DHT22;51687;52.160;5.298;2022-10-28T00:36:30;19.10;71.30
43995;DHT22;51687;52.160;5.298;2022-10-28T00:38:59;19.20;71.20
43995;DHT22;51687;52.160;5.298;2022-10-28T00:41:30;19.20;71.30
43995;DHT22;51687;52.160;5.298;2022-10-28T00:44:00;19.20;71.40
43995;DHT22;51687;52.160;5.298;2022-10-28T00:46:29;19.10;71.30
43995;DHT22;51687;52.160;5.298;2022-10-28T00:49:01;19.10;71.50
43995;DHT22;51687;52.160;5.298;2022-10-28T00:51:29;19.10;71.60
43995;DHT22;51687;52.160;5.298;2022-10-28T00:53:57;19.10;71.70
43995;DHT22;51687;52.160;5.298;2022-10-28T00:56:27;19.10;71.70
43995;DHT22;51687;52.160;5.298;2022-10-28T00:58:55;19.10;71.60
43995;DHT22;51687;52.160;5.298;2022-10-28T01:01:23;19.10;71.70
43995;DHT22;51687;52.160;5.298;2022-10-28T01:03:50;19.10;71.60
43995;DHT22;51687;52.160;5.298;2022-10-28T01:06:18;19.10;71.70
43995;DHT22;51687;52.160;5.298;2022-10-28T01:08:45;19.00;71.60
43995;DHT22;51687;52.160;5.298;2022-10-28T01:22:19;19.00;71.90
43995;DHT22;51687;52.160;5.298;2022-10-28T01:25:24;19.00;71.90
43995;DHT22;51687;52.160;5.298;2022-10-28T01:28:06;19.00;71.80
43995;DHT22;51687;52.160;5.298;2022-10-28T01:33:32;19.00;71.80
43995;DHT22;51687;52.160;5.298;2022-10-28T01:36:15;19.00;71.80
43995;DHT22;51687;52.160;5.298;2022-10-28T01:38:48;19.00;71.90
43995;DHT22;51687;52.160;5.298;2022-10-28T01:41:31;19.00;71.90
43995;DHT22;51687;52.160;5.298;2022-10-28T01:47:06;19.00;71.80
43995;DHT22;51687;52.160;5.298;2022-10-28T01:52:10;18.90;71.70
43995;DHT22;51687;52.160;5.298;2022-10-28T01:54:39;18.90;71.80
43995;DHT22;51687;52.160;5.298;2022-10-28T01:57:09;18.90;71.70
43995;DHT22;51687;52.160;5.298;2022-10-28T01:59:39;18.90;71.70
43995;DHT22;51687;52.160;5.298;2022-10-28T02:02:06;18.90;71.50
43995;DHT22;51687;52.160;5.298;2022-10-28T02:04:33;18.90;71.50
43995;DHT22;51687;52.160;5.298;2022-10-28T02:06:59;18.90;71.50
43995;DHT22;51687;52.160;5.298;2022-10-28T02:09:36;18.90;71.60
43995;DHT22;51687;52.160;5.298;2022-10-28T02:20:59;18.80;71.30
43995;DHT22;51687;52.160;5.298;2022-10-28T02:23:16;18.80;71.20
43995;DHT22;51687;52.160;5.298;2022-10-28T02:31:11;18.80;71.20
43995;DHT22;51687;52.160;5.298;2022-10-28T02:33:47;18.80;71.30
43995;DHT22;51687;52.160;5.298;2022-10-28T02:36:17;18.80;71.30
43995;DHT22;51687;52.160;5.298;2022-10-28T02:38:48;18.80;71.30
43995;DHT22;51687;52.160;5.298;2022-10-28T02:43:52;18.70;71.50
43995;DHT22;51687;52.160;5.298;2022-10-28T02:46:22;18.70;71.40
43995;DHT22;51687;52.160;5.298;2022-10-28T02:49:05;18.70;71.50
43995;DHT22;51687;52.160;5.298;2022-10-28T02:51:45;18.70;71.50
43995;DHT22;51687;52.160;5.298;2022-10-28T02:54:17;18.70;71.60
43995;DHT22;51687;52.160;5.298;2022-10-28T02:57:02;18.70;71.60
43995;DHT22;51687;52.160;5.298;2022-10-28T02:59:29;18.70;71.60
43995;DHT22;51687;52.160;5.298;2022-10-28T03:01:56;18.70;71.50
43995;DHT22;51687;52.160;5.298;2022-10-28T03:04:23;18.70;71.40
43995;DHT22;51687;52.160;5.298;2022-10-28T03:06:50;18.70;71.50
43995;DHT22;51687;52.160;5.298;2022-10-28T03:09:17;18.70;71.40
43995;DHT22;51687;52.160;5.298;2022-10-28T03:11:44;18.70;71.40
43995;DHT22;51687;52.160;5.298;2022-10-28T03:14:10;18.70;71.60
43995;DHT22;51687;52.160;5.298;2022-10-28T03:16:40;18.70;71.80
43995;DHT22;51687;52.160;5.298;2022-10-28T03:19:07;18.70;71.80
43995;DHT22;51687;52.160;5.298;2022-10-28T03:21:39;18.70;72.30
43995;DHT22;51687;52.160;5.298;2022-10-28T03:24:06;18.70;71.70
43995;DHT22;51687;52.160;5.298;2022-10-28T03:26:33;18.60;71.60
43995;DHT22;51687;52.160;5.298;2022-10-28T03:28:59;18.70;71.60
43995;DHT22;51687;52.160;5.298;2022-10-28T03:31:26;18.60;71.60
43995;DHT22;51687;52.160;5.298;2022-10-28T03:33:53;18.60;71.90
43995;DHT22;51687;52.160;5.298;2022-10-28T03:36:19;18.60;71.90
43995;DHT22;51687;52.160;5.298;2022-10-28T03:38:46;18.60;71.80
43995;DHT22;51687;52.160;5.298;2022-10-28T03:41:13;18.60;71.70
43995;DHT22;51687;52.160;5.298;2022-10-28T03:43:39;18.70;71.80
43995;DHT22;51687;52.160;5.298;2022-10-28T03:46:06;18.60;71.80
43995;DHT22;51687;52.160;5.298;2022-10-28T03:48:33;18.60;71.80
43995;DHT22;51687;52.160;5.298;2022-10-28T03:51:00;18.60;71.90
43995;DHT22;51687;52.160;5.298;2022-10-28T03:53:26;18.60;71.80
43995;DHT22;51687;52.160;5.298;2022-10-28T03:55:58;18.60;71.90
43995;DHT22;51687;52.160;5.298;2022-10-28T03:58:25;18.60;72.00
43995;DHT22;51687;52.160;5.298;2022-10-28T04:00:53;18.60;72.00
43995;DHT22;51687;52.160;5.298;2022-10-28T04:03:21;18.60;72.10
43995;DHT22;51687;52.160;5.298;2022-10-28T04:05:49;18.60;72.10
43995;DHT22;51687;52.160;5.298;2022-10-28T04:08:17;18.60;72.10
43995;DHT22;51687;52.160;5.298;2022-10-28T04:10:44;18.60;72.10
43995;DHT22;51687;52.160;5.298;2022-10-28T04:13:13;18.60;71.90
43995;DHT22;51687;52.160;5.298;2022-10-28T04:15:41;18.60;71.90
43995;DHT22;51687;52.160;5.298;2022-10-28T04:18:08;18.60;71.80
43995;DHT22;51687;52.160;5.298;2022-10-28T04:20:34;18.60;71.80
43995;DHT22;51687;52.160;5.298;2022-10-28T04:23:01;18.70;71.60
43995;DHT22;51687;52.160;5.298;2022-10-28T04:25:29;18.60;71.60
43995;DHT22;51687;52.160;5.298;2022-10-28T04:27:55;18.60;71.70
43995;DHT22;51687;52.160;5.298;2022-10-28T04:30:22;18.70;71.60
43995;DHT22;51687;52.160;5.298;2022-10-28T04:32:49;18.60;71.50
43995;DHT22;51687;52.160;5.298;2022-10-28T04:35:16;18.60;71.70
43995;DHT22;51687;52.160;5.298;2022-10-28T04:37:43;18.60;71.70
43995;DHT22;51687;52.160;5.298;2022-10-28T04:40:10;18.60;71.60
43995;DHT22;51687;52.160;5.298;2022-10-28T04:42:36;18.60;71.60
43995;DHT22;51687;52.160;5.298;2022-10-28T04:45:03;18.60;71.60
43995;DHT22;51687;52.160;5.298;2022-10-28T04:47:30;18.60;71.60
43995;DHT22;51687;52.160;5.298;2022-10-28T04:49:57;18.60;71.60
43995;DHT22;51687;52.160;5.298;2022-10-28T04:52:23;18.60;71.50
43995;DHT22;51687;52.160;5.298;2022-10-28T04:54:51;18.60;71.40
43995;DHT22;51687;52.160;5.298;2022-10-28T04:57:17;18.60;71.60
43995;DHT22;51687;52.160;5.298;2022-10-28T04:59:44;18.60;71.60
43995;DHT22;51687;52.160;5.298;2022-10-28T05:02:12;18.60;71.60
43995;DHT22;51687;52.160;5.298;2022-10-28T05:04:39;18.60;71.50
43995;DHT22;51687;52.160;5.298;2022-10-28T05:07:05;18.60;71.50
43995;DHT22;51687;52.160;5.298;2022-10-28T05:09:32;18.60;71.40
43995;DHT22;51687;52.160;5.298;2022-10-28T05:11:59;18.60;71.30
43995;DHT22;51687;52.160;5.298;2022-10-28T05:14:26;18.60;72.00
43995;DHT22;51687;52.160;5.298;2022-10-28T05:16:53;18.60;71.40
43995;DHT22;51687;52.160;5.298;2022-10-28T05:19:19;18.60;71.20
43995;DHT22;51687;52.160;5.298;2022-10-28T05:21:46;18.60;71.20
43995;DHT22;51687;52.160;5.298;2022-10-28T05:24:13;18.60;71.30
43995;DHT22;51687;52.160;5.298;2022-10-28T05:26:39;18.60;71.30
43995;DHT22;51687;52.160;5.298;2022-10-28T05:29:06;18.60;72.00
43995;DHT22;51687;52.160;5.298;2022-10-28T05:31:33;18.60;71.30
43995;DHT22;51687;52.160;5.298;2022-10-28T05:33:59;18.50;71.20
43995;DHT22;51687;52.160;5.298;2022-10-28T05:36:26;18.60;71.20
43995;DHT22;51687;52.160;5.298;2022-10-28T05:38:53;18.60;71.30
43995;DHT22;51687;52.160;5.298;2022-10-28T05:41:19;18.50;71.10
43995;DHT22;51687;52.160;5.298;2022-10-28T05:43:50;18.50;71.10
43995;DHT22;51687;52.160;5.298;2022-10-28T05:46:17;18.50;71.10
43995;DHT22;51687;52.160;5.298;2022-10-28T05:48:43;18.50;71.00
43995;DHT22;51687;52.160;5.298;2022-10-28T05:51:10;18.50;71.10
43995;DHT22;51687;52.160;5.298;2022-10-28T05:53:37;18.50;71.00
43995;DHT22;51687;52.160;5.298;2022-10-28T05:56:04;18.60;71.00
43995;DHT22;51687;52.160;5.298;2022-10-28T05:58:30;18.50;70.90
43995;DHT22;51687;52.160;5.298;2022-10-28T06:00:57;18.60;71.00
43995;DHT22;51687;52.160;5.298;2022-10-28T06:05:57;18.50;70.90
43995;DHT22;51687;52.160;5.298;2022-10-28T06:08:24;18.50;70.70
43995;DHT22;51687;52.160;5.298;2022-10-28T06:10:52;18.50;70.80
43995;DHT22;51687;52.160;5.298;2022-10-28T06:13:22;18.50;70.80
43995;DHT22;51687;52.160;5.298;2022-10-28T06:15:53;18.50;70.80
43995;DHT22;51687;52.160;5.298;2022-10-28T06:18:20;18.50;70.70
43995;DHT22;51687;52.160;5.298;2022-10-28T06:20:55;18.50;70.70
43995;DHT22;51687;52.160;5.298;2022-10-28T06:23:23;18.50;70.80
43995;DHT22;51687;52.160;5.298;2022-10-28T06:25:50;18.50;70.80
43995;DHT22;51687;52.160;5.298;2022-10-28T06:28:21;18.50;71.30
43995;DHT22;51687;52.160;5.298;2022-10-28T06:30:48;18.60;71.20
43995;DHT22;51687;52.160;5.298;2022-10-28T06:33:14;18.60;71.10
43995;DHT22;51687;52.160;5.298;2022-10-28T06:35:43;18.60;70.70
43995;DHT22;51687;52.160;5.298;2022-10-28T06:38:10;18.70;70.60
43995;DHT22;51687;52.160;5.298;2022-10-28T06:40:37;18.70;70.40
43995;DHT22;51687;52.160;5.298;2022-10-28T06:43:05;18.70;70.30
43995;DHT22;51687;52.160;5.298;2022-10-28T06:45:33;18.80;70.20
43995;DHT22;51687;52.160;5.298;2022-10-28T06:48:02;18.80;70.70
43995;DHT22;51687;52.160;5.298;2022-10-28T06:50:31;18.80;70.00
43995;DHT22;51687;52.160;5.298;2022-10-28T06:52:58;18.90;69.80
43995;DHT22;51687;52.160;5.298;2022-10-28T06:55:25;18.90;70.40
43995;DHT22;51687;52.160;5.298;2022-10-28T06:57:52;18.90;69.90
43995;DHT22;51687;52.160;5.298;2022-10-28T07:00:19;18.90;69.70
43995;DHT22;51687;52.160;5.298;2022-10-28T07:02:51;18.90;69.60
43995;DHT22;51687;52.160;5.298;2022-10-28T07:05:18;19.00;69.70
43995;DHT22;51687;52.160;5.298;2022-10-28T07:07:45;19.00;69.70
43995;DHT22;51687;52.160;5.298;2022-10-28T07:10:12;19.00;69.60
43995;DHT22;51687;52.160;5.298;2022-10-28T07:12:39;19.00;69.60
43995;DHT22;51687;52.160;5.298;2022-10-28T07:15:06;19.00;69.50
43995;DHT22;51687;52.160;5.298;2022-10-28T07:17:33;19.00;69.60
43995;DHT22;51687;52.160;5.298;2022-10-28T07:20:02;19.00;69.60
43995;DHT22;51687;52.160;5.298;2022-10-28T07:22:29;19.00;69.60
43995;DHT22;51687;52.160;5.298;2022-10-28T07:24:56;19.00;69.70
43995;DHT22;51687;52.160;5.298;2022-10-28T07:27:23;19.00;69.40
43995;DHT22;51687;52.160;5.298;2022-10-28T07:29:49;19.00;69.40
43995;DHT22;51687;52.160;5.298;2022-10-28T07:32:16;19.00;69.50
43995;DHT22;51687;52.160;5.298;2022-10-28T07:34:43;18.90;69.50
43995;DHT22;51687;52.160;5.298;2022-10-28T07:37:11;18.90;69.50
43995;DHT22;51687;52.160;5.298;2022-10-28T07:39:38;18.90;69.70
43995;DHT22;51687;52.160;5.298;2022-10-28T07:42:04;18.90;69.80
43995;DHT22;51687;52.160;5.298;2022-10-28T07:44:31;18.80;69.80
43995;DHT22;51687;52.160;5.298;2022-10-28T07:46:58;18.80;70.20
43995;DHT22;51687;52.160;5.298;2022-10-28T07:49:25;18.80;70.40
43995;DHT22;51687;52.160;5.298;2022-10-28T07:51:51;18.80;70.30
43995;DHT22;51687;52.160;5.298;2022-10-28T07:54:18;18.70;70.30
43995;DHT22;51687;52.160;5.298;2022-10-28T07:56:45;18.70;70.50
43995;DHT22;51687;52.160;5.298;2022-10-28T07:59:12;18.70;71.10
43995;DHT22;51687;52.160;5.298;2022-10-28T08:01:39;18.70;70.80
43995;DHT22;51687;52.160;5.298;2022-10-28T08:04:05;18.70;71.10
43995;DHT22;51687;52.160;5.298;2022-10-28T08:06:33;18.70;71.00
43995;DHT22;51687;52.160;5.298;2022-10-28T08:09:01;18.70;71.10
43995;DHT22;51687;52.160;5.298;2022-10-28T08:11:27;18.70;71.00
43995;DHT22;51687;52.160;5.298;2022-10-28T08:13:54;18.60;71.00
43995;DHT22;51687;52.160;5.298;2022-10-28T08:16:22;18.60;71.20
43995;DHT22;51687;52.160;5.298;2022-10-28T08:18:48;18.60;71.50
43995;DHT22;51687;52.160;5.298;2022-10-28T08:21:15;18.70;71.40
43995;DHT22;51687;52.160;5.298;2022-10-28T08:23:42;18.60;71.50
43995;DHT22;51687;52.160;5.298;2022-10-28T08:26:14;18.70;71.60
43995;DHT22;51687;52.160;5.298;2022-10-28T08:28:41;18.70;71.80
43995;DHT22;51687;52.160;5.298;2022-10-28T08:31:09;18.70;71.90
43995;DHT22;51687;52.160;5.298;2022-10-28T08:33:42;18.70;72.00
43995;DHT22;51687;52.160;5.298;2022-10-28T08:36:14;18.70;72.40
43995;DHT22;51687;52.160;5.298;2022-10-28T08:38:42;18.70;72.40
43995;DHT22;51687;52.160;5.298;2022-10-28T08:41:27;18.70;72.40
43995;DHT22;51687;52.160;5.298;2022-10-28T08:46:49;18.70;72.10
43995;DHT22;51687;52.160;5.298;2022-10-28T08:49:22;18.70;72.10
43995;DHT22;51687;52.160;5.298;2022-10-28T08:52:15;18.80;72.00
43995;DHT22;51687;52.160;5.298;2022-10-28T08:54:50;18.80;72.10
43995;DHT22;51687;52.160;5.298;2022-10-28T08:57:22;18.80;72.00
43995;DHT22;51687;52.160;5.298;2022-10-28T08:59:52;18.80;72.10
43995;DHT22;51687;52.160;5.298;2022-10-28T09:02:24;18.80;72.10
43995;DHT22;51687;52.160;5.298;2022-10-28T09:07:22;18.90;72.30
43995;DHT22;51687;52.160;5.298;2022-10-28T09:09:50;18.90;72.00
43995;DHT22;51687;52.160;5.298;2022-10-28T09:12:33;18.90;72.10
43995;DHT22;51687;52.160;5.298;2022-10-28T09:15:17;18.90;72.50
43995;DHT22;51687;52.160;5.298;2022-10-28T09:18:04;18.90;72.50
43995;DHT22;51687;52.160;5.298;2022-10-28T09:21:02;18.90;72.40
43995;DHT22;51687;52.160;5.298;2022-10-28T09:23:35;18.90;72.40
43995;DHT22;51687;52.160;5.298;2022-10-28T09:29:06;19.00;72.50
43995;DHT22;51687;52.160;5.298;2022-10-28T09:31:44;18.90;72.00
43995;DHT22;51687;52.160;5.298;2022-10-28T09:37:18;19.00;72.10
43995;DHT22;51687;52.160;5.298;2022-10-28T09:39:53;19.00;72.20
43995;DHT22;51687;52.160;5.298;2022-10-28T09:42:34;19.00;72.40
43995;DHT22;51687;52.160;5.298;2022-10-28T09:45:18;19.00;73.40
43995;DHT22;51687;52.160;5.298;2022-10-28T09:47:57;19.10;72.70
43995;DHT22;51687;52.160;5.298;2022-10-28T09:50:28;19.10;72.70
43995;DHT22;51687;52.160;5.298;2022-10-28T09:53:04;19.10;73.10
43995;DHT22;51687;52.160;5.298;2022-10-28T09:55:37;19.10;72.90
43995;DHT22;51687;52.160;5.298;2022-10-28T09:58:04;19.10;72.70
43995;DHT22;51687;52.160;5.298;2022-10-28T10:00:31;19.10;73.10
43995;DHT22;51687;52.160;5.298;2022-10-28T10:02:58;19.10;73.30
43995;DHT22;51687;52.160;5.298;2022-10-28T10:05:25;19.20;73.30
43995;DHT22;51687;52.160;5.298;2022-10-28T10:07:58;19.20;73.20
43995;DHT22;51687;52.160;5.298;2022-10-28T10:10:31;19.20;73.10
43995;DHT22;51687;52.160;5.298;2022-10-28T10:13:02;19.20;73.20
43995;DHT22;51687;52.160;5.298;2022-10-28T10:15:36;19.20;73.40
43995;DHT22;51687;52.160;5.298;2022-10-28T10:18:05;19.20;73.70
43995;DHT22;51687;52.160;5.298;2022-10-28T10:21:05;19.30;73.40
43995;DHT22;51687;52.160;5.298;2022-10-28T10:23:36;19.30;73.40
43995;DHT22;51687;52.160;5.298;2022-10-28T10:26:12;19.30;73.50
43995;DHT22;51687;52.160;5.298;2022-10-28T10:28:47;19.30;73.60
43995;DHT22;51687;52.160;5.298;2022-10-28T10:31:41;19.30;73.40
43995;DHT22;51687;52.160;5.298;2022-10-28T10:34:21;19.40;73.50
43995;DHT22;51687;52.160;5.298;2022-10-28T10:36:50;19.40;73.70
43995;DHT22;51687;52.160;5.298;2022-10-28T10:39:22;19.40;73.80
43995;DHT22;51687;52.160;5.298;2022-10-28T10:41:53;19.40;74.10
43995;DHT22;51687;52.160;5.298;2022-10-28T10:49:33;19.50;74.00
43995;DHT22;51687;52.160;5.298;2022-10-28T10:52:02;19.60;73.80
43995;DHT22;51687;52.160;5.298;2022-10-28T10:54:31;19.60;74.00
43995;DHT22;51687;52.160;5.298;2022-10-28T10:57:19;19.60;74.10
43995;DHT22;51687;52.160;5.298;2022-10-28T10:59:52;19.70;73.80
43995;DHT22;51687;52.160;5.298;2022-10-28T11:02:31;19.70;73.80
43995;DHT22;51687;52.160;5.298;2022-10-28T11:07:32;19.70;73.70
43995;DHT22;51687;52.160;5.298;2022-10-28T11:09:59;19.80;73.50
43995;DHT22;51687;52.160;5.298;2022-10-28T11:14:59;19.80;72.50
43995;DHT22;51687;52.160;5.298;2022-10-28T11:17:35;19.80;72.90
43995;DHT22;51687;52.160;5.298;2022-10-28T11:20:24;19.90;72.60
43995;DHT22;51687;52.160;5.298;2022-10-28T11:25:45;20.00;72.80
43995;DHT22;51687;52.160;5.298;2022-10-28T11:37:01;20.10;73.10
43995;DHT22;51687;52.160;5.298;2022-10-28T12:08:51;20.10;72.60
43995;DHT22;51687;52.160;5.298;2022-10-28T12:11:48;20.40;70.30
43995;DHT22;51687;52.160;5.298;2022-10-28T12:14:29;20.40;70.20
43995;DHT22;51687;52.160;5.298;2022-10-28T12:17:16;20.40;70.20
43995;DHT22;51687;52.160;5.298;2022-10-28T12:20:00;20.40;70.30
43995;DHT22;51687;52.160;5.298;2022-10-28T12:22:50;20.50;70.10
43995;DHT22;51687;52.160;5.298;2022-10-28T12:25:25;20.50;70.40
43995;DHT22;51687;52.160;5.298;2022-10-28T12:28:06;20.40;70.20
43995;DHT22;51687;52.160;5.298;2022-10-28T12:30:41;20.50;70.00
43995;DHT22;51687;52.160;5.298;2022-10-28T12:33:36;20.50;69.70
43995;DHT22;51687;52.160;5.298;2022-10-28T12:38:54;20.50;69.70
43995;DHT22;51687;52.160;5.298;2022-10-28T12:41:25;20.60;69.00
43995;DHT22;51687;52.160;5.298;2022-10-28T12:44:09;20.60;68.60
43995;DHT22;51687;52.160;5.298;2022-10-28T12:46:43;20.60;69.00
43995;DHT22;51687;52.160;5.298;2022-10-28T12:49:49;20.60;68.90
43995;DHT22;51687;52.160;5.298;2022-10-28T12:52:36;20.60;68.80
43995;DHT22;51687;52.160;5.298;2022-10-28T12:57:48;20.60;68.60
43995;DHT22;51687;52.160;5.298;2022-10-28T13:00:41;20.60;68.40
43995;DHT22;51687;52.160;5.298;2022-10-28T13:03:13;20.60;68.60
43995;DHT22;51687;52.160;5.298;2022-10-28T13:05:45;20.70;69.30
43995;DHT22;51687;52.160;5.298;2022-10-28T13:28:00;20.70;68.90
43995;DHT22;51687;52.160;5.298;2022-10-28T13:30:27;20.70;69.70
43995;DHT22;51687;52.160;5.298;2022-10-28T13:33:08;20.70;69.30
43995;DHT22;51687;52.160;5.298;2022-10-28T13:35:39;20.70;69.20
43995;DHT22;51687;52.160;5.298;2022-10-28T13:38:09;20.70;69.10
43995;DHT22;51687;52.160;5.298;2022-10-28T13:43:04;20.70;68.90
43995;DHT22;51687;52.160;5.298;2022-10-28T13:45:47;20.70;68.40
43995;DHT22;51687;52.160;5.298;2022-10-28T13:56:39;20.70;68.80
43995;DHT22;51687;52.160;5.298;2022-10-28T14:04:35;20.70;68.90
43995;DHT22;51687;52.160;5.298;2022-10-28T14:09:39;20.70;69.00
43995;DHT22;51687;52.160;5.298;2022-10-28T14:12:22;20.80;69.20
43995;DHT22;51687;52.160;5.298;2022-10-28T14:17:41;20.80;69.20
43995;DHT22;51687;52.160;5.298;2022-10-28T14:20:23;20.70;69.10
43995;DHT22;51687;52.160;5.298;2022-10-28T14:22:51;20.80;69.10
43995;DHT22;51687;52.160;5.298;2022-10-28T14:33:38;20.80;69.40
43995;DHT22;51687;52.160;5.298;2022-10-28T14:49:57;20.80;69.70
43995;DHT22;51687;52.160;5.298;2022-10-28T14:52:29;20.80;69.80
43995;DHT22;51687;52.160;5.298;2022-10-28T14:54:58;20.80;69.70
43995;DHT22;51687;52.160;5.298;2022-10-28T14:57:28;20.80;70.00
43995;DHT22;51687;52.160;5.298;2022-10-28T15:00:07;20.80;70.20
43995;DHT22;51687;52.160;5.298;2022-10-28T15:02:36;20.80;70.30
43995;DHT22;51687;52.160;5.298;2022-10-28T15:05:16;20.80;70.20
43995;DHT22;51687;52.160;5.298;2022-10-28T15:07:46;20.80;70.50
43995;DHT22;51687;52.160;5.298;2022-10-28T15:10:27;20.80;70.40
43995;DHT22;51687;52.160;5.298;2022-10-28T15:12:56;20.80;70.60
43995;DHT22;51687;52.160;5.298;2022-10-28T15:15:29;20.80;70.30
43995;DHT22;51687;52.160;5.298;2022-10-28T15:17:58;20.80;70.30
43995;DHT22;51687;52.160;5.298;2022-10-28T15:20:29;20.80;70.50
43995;DHT22;51687;52.160;5.298;2022-10-28T15:23:16;20.80;70.60
43995;DHT22;51687;52.160;5.298;2022-10-28T15:25:43;20.80;70.50
43995;DHT22;51687;52.160;5.298;2022-10-28T15:28:11;20.80;70.40
43995;DHT22;51687;52.160;5.298;2022-10-28T15:30:40;20.90;70.50
43995;DHT22;51687;52.160;5.298;2022-10-28T15:33:30;20.90;70.50
43995;DHT22;51687;52.160;5.298;2022-10-28T15:36:18;20.80;70.60
43995;DHT22;51687;52.160;5.298;2022-10-28T15:38:48;20.80;70.60
43995;DHT22;51687;52.160;5.298;2022-10-28T15:41:39;20.80;70.60
43995;DHT22;51687;52.160;5.298;2022-10-28T15:44:36;20.80;70.30
43995;DHT22;51687;52.160;5.298;2022-10-28T15:47:18;20.80;70.30
43995;DHT22;51687;52.160;5.298;2022-10-28T15:52:38;20.80;70.60
43995;DHT22;51687;52.160;5.298;2022-10-28T15:57:56;20.80;70.60
43995;DHT22;51687;52.160;5.298;2022-10-28T16:00:29;20.80;70.50
43995;DHT22;51687;52.160;5.298;2022-10-28T16:03:01;20.80;70.60
43995;DHT22;51687;52.160;5.298;2022-10-28T16:10:27;20.80;70.80
43995;DHT22;51687;52.160;5.298;2022-10-28T16:12:56;20.80;70.70
43995;DHT22;51687;52.160;5.298;2022-10-28T16:15:26;20.80;70.70
43995;DHT22;51687;52.160;5.298;2022-10-28T16:17:53;20.80;70.70
43995;DHT22;51687;52.160;5.298;2022-10-28T16:20:27;20.80;70.70
43995;DHT22;51687;52.160;5.298;2022-10-28T16:22:56;20.80;70.80
43995;DHT22;51687;52.160;5.298;2022-10-28T16:25:23;20.80;70.90
43995;DHT22;51687;52.160;5.298;2022-10-28T16:27:50;20.70;70.70
43995;DHT22;51687;52.160;5.298;2022-10-28T18:26:30;20.70;70.90
43995;DHT22;51687;52.160;5.298;2022-10-28T18:28:58;20.60;71.60
43995;DHT22;51687;52.160;5.298;2022-10-28T18:31:25;20.50;71.60
43995;DHT22;51687;52.160;5.298;2022-10-28T18:33:51;20.50;71.70
43995;DHT22;51687;52.160;5.298;2022-10-28T18:36:21;20.50;71.40
43995;DHT22;51687;52.160;5.298;2022-10-28T18:38:49;20.50;71.00
43995;DHT22;51687;52.160;5.298;2022-10-28T18:41:18;20.40;70.50
43995;DHT22;51687;52.160;5.298;2022-10-28T18:43:45;20.40;70.20
43995;DHT22;51687;52.160;5.298;2022-10-28T18:46:12;20.30;69.90
43995;DHT22;51687;52.160;5.298;2022-10-28T18:48:39;20.30;69.60
43995;DHT22;51687;52.160;5.298;2022-10-28T18:51:09;20.30;69.30
43995;DHT22;51687;52.160;5.298;2022-10-28T18:53:41;20.30;69.00
43995;DHT22;51687;52.160;5.298;2022-10-28T18:56:16;20.20;68.70
43995;DHT22;51687;52.160;5.298;2022-10-28T18:58:44;20.20;68.60
43995;DHT22;51687;52.160;5.298;2022-10-28T19:01:13;20.20;68.50
43995;DHT22;51687;52.160;5.298;2022-10-28T19:03:41;20.20;68.50
43995;DHT22;51687;52.160;5.298;2022-10-28T19:06:15;20.10;68.40
43995;DHT22;51687;52.160;5.298;2022-10-28T19:08:43;20.10;68.30
43995;DHT22;51687;52.160;5.298;2022-10-28T19:11:11;20.10;68.20
43995;DHT22;51687;52.160;5.298;2022-10-28T19:13:40;20.10;68.80
43995;DHT22;51687;52.160;5.298;2022-10-28T19:16:07;20.10;68.00
43995;DHT22;51687;52.160;5.298;2022-10-28T19:18:35;20.10;68.00
43995;DHT22;51687;52.160;5.298;2022-10-28T19:21:05;20.10;67.90
43995;DHT22;51687;52.160;5.298;2022-10-28T19:23:33;20.10;67.90
43995;DHT22;51687;52.160;5.298;2022-10-28T19:26:00;20.10;67.90
43995;DHT22;51687;52.160;5.298;2022-10-28T19:28:27;20.10;67.90
43995;DHT22;51687;52.160;5.298;2022-10-28T19:31:00;20.10;67.80
43995;DHT22;51687;52.160;5.298;2022-10-28T19:33:29;20.10;67.90
43995;DHT22;51687;52.160;5.298;2022-10-28T19:36:00;20.10;67.70
43995;DHT22;51687;52.160;5.298;2022-10-28T19:38:31;20.00;67.70
43995;DHT22;51687;52.160;5.298;2022-10-28T19:41:12;20.00;67.70
43995;DHT22;51687;52.160;5.298;2022-10-28T19:43:40;20.00;67.60
43995;DHT22;51687;52.160;5.298;2022-10-28T19:46:12;20.00;67.70
43995;DHT22;51687;52.160;5.298;2022-10-28T19:48:43;20.00;67.70
43995;DHT22;51687;52.160;5.298;2022-10-28T19:51:15;20.00;67.70
43995;DHT22;51687;52.160;5.298;2022-10-28T19:53:50;20.00;67.50
43995;DHT22;51687;52.160;5.298;2022-10-28T19:56:18;19.90;67.50
43995;DHT22;51687;52.160;5.298;2022-10-28T19:58:46;19.90;68.20
43995;DHT22;51687;52.160;5.298;2022-10-28T20:01:14;19.90;67.50
43995;DHT22;51687;52.160;5.298;2022-10-28T20:03:43;19.90;67.60
43995;DHT22;51687;52.160;5.298;2022-10-28T20:06:17;19.90;67.60
43995;DHT22;51687;52.160;5.298;2022-10-28T20:08:45;19.90;67.60
43995;DHT22;51687;52.160;5.298;2022-10-28T20:11:18;19.80;67.60
43995;DHT22;51687;52.160;5.298;2022-10-28T20:13:57;19.90;67.70
43995;DHT22;51687;52.160;5.298;2022-10-28T20:16:26;19.80;67.60
43995;DHT22;51687;52.160;5.298;2022-10-28T20:18:54;19.80;67.60
43995;DHT22;51687;52.160;5.298;2022-10-28T20:21:23;19.80;67.70
43995;DHT22;51687;52.160;5.298;2022-10-28T20:23:51;19.80;68.00
43995;DHT22;51687;52.160;5.298;2022-10-28T20:26:28;19.70;67.80
43995;DHT22;51687;52.160;5.298;2022-10-28T20:28:55;19.80;67.80
43995;DHT22;51687;52.160;5.298;2022-10-28T20:31:25;19.70;67.80
43995;DHT22;51687;52.160;5.298;2022-10-28T20:33:53;19.70;67.70
43995;DHT22;51687;52.160;5.298;2022-10-28T20:36:41;19.70;67.70
43995;DHT22;51687;52.160;5.298;2022-10-28T20:39:18;19.70;67.70
43995;DHT22;51687;52.160;5.298;2022-10-28T20:41:47;19.70;67.70
43995;DHT22;51687;52.160;5.298;2022-10-28T20:44:15;19.70;67.80
43995;DHT22;51687;52.160;5.298;2022-10-28T20:46:42;19.70;67.80
43995;DHT22;51687;52.160;5.298;2022-10-28T20:49:10;19.60;67.80
43995;DHT22;51687;52.160;5.298;2022-10-28T20:51:38;19.60;67.80